Time;durP1;ratioP1;P1;durP2;ratioP2;P2;SDS_P1;SDS_P2;PMS_P1;PMS_P2;Temp;Humidity;BMP_temperature;BMP_pressure;BME280_temperature;BME280_humidity;BME280_pressure;Samples;Min_cycle;Max_cycle;Signal;HPM_P1;HPM_P2
2024/03/05 00:00:46;;;;;;;40.05;25.92;;;;;;;6.18;100.00;92191.09;5060694;28;20052;-73
2024/03/05 00:03:13;;;;;;;36.60;24.73;;;;;;;6.11;100.00;92178.41;5064795;28;20048;-72
2024/03/05 00:05:39;;;;;;;35.20;24.42;;;;;;;6.04;100.00;92180.22;5063145;28;20476;-73
2024/03/05 00:08:07;;;;;;;42.70;27.17;;;;;;;6.05;100.00;92190.22;5065927;28;20052;-73
2024/03/05 00:10:34;;;;;;;45.95;28.27;;;;;;;6.05;100.00;92185.13;5066866;28;20056;-73
2024/03/05 00:13:03;;;;;;;44.22;29.52;;;;;;;5.95;100.00;92165.16;5066576;28;20486;-73
2024/03/05 00:15:30;;;;;;;46.47;30.23;;;;;;;5.96;100.00;92169.25;5061800;28;20068;-72
2024/03/05 00:17:57;;;;;;;39.47;27.75;;;;;;;6.17;100.00;92180.13;5065866;28;21345;-72
2024/03/05 00:20:24;;;;;;;31.65;20.45;;;;;;;6.00;100.00;92172.97;5064599;28;20040;-72
2024/03/05 00:22:51;;;;;;;31.23;21.25;;;;;;;5.94;100.00;92173.00;5063320;28;20044;-73
2024/03/05 00:25:18;;;;;;;35.83;22.85;;;;;;;5.80;100.00;92177.41;5060691;28;20041;-72
2024/03/05 00:27:45;;;;;;;32.30;21.52;;;;;;;5.62;100.00;92174.56;5060850;28;20059;-73
2024/03/05 00:30:15;;;;;;;31.90;20.15;;;;;;;5.62;100.00;92166.91;5066358;28;20421;-73
2024/03/05 00:32:42;;;;;;;30.42;20.35;;;;;;;5.68;100.00;92165.31;5065813;28;20516;-74
2024/03/05 00:35:10;;;;;;;37.45;22.95;;;;;;;5.61;100.00;92164.59;5062880;28;20059;-74
2024/03/05 00:37:37;;;;;;;32.83;20.55;;;;;;;5.74;100.00;92171.38;5065395;28;20450;-74
2024/03/05 00:40:08;;;;;;;39.50;23.77;;;;;;;5.68;100.00;92159.44;5065280;28;20487;-73
2024/03/05 00:42:35;;;;;;;38.08;24.52;;;;;;;5.61;100.00;92159.50;5065798;28;20433;-73
2024/03/05 00:45:02;;;;;;;42.75;28.73;;;;;;;5.61;100.00;92160.25;5066362;28;20040;-73
2024/03/05 00:47:30;;;;;;;81.57;46.50;;;;;;;5.59;100.00;92153.81;5063373;28;20119;-73
2024/03/05 00:49:59;;;;;;;116.53;66.63;;;;;;;5.57;100.00;92137.97;5064018;28;20052;-73
2024/03/05 00:52:26;;;;;;;93.80;53.72;;;;;;;5.64;100.00;92145.56;5059320;28;20044;-73
2024/03/05 00:54:53;;;;;;;52.05;33.13;;;;;;;5.61;100.00;92141.66;5066402;28;20066;-72
2024/03/05 00:57:20;;;;;;;37.05;23.92;;;;;;;5.55;100.00;92143.25;5062772;28;20070;-72
2024/03/05 00:59:46;;;;;;;32.53;20.80;;;;;;;5.46;100.00;92144.50;5069022;28;20048;-73
2024/03/05 01:02:13;;;;;;;29.52;20.08;;;;;;;5.41;100.00;92134.91;5069271;28;20044;-73
2024/03/05 01:04:42;;;;;;;31.27;21.40;;;;;;;5.34;100.00;92140.03;5070000;28;20053;-73
2024/03/05 01:07:09;;;;;;;30.98;21.85;;;;;;;5.42;100.00;92135.69;5064855;28;20044;-74
2024/03/05 01:09:36;;;;;;;33.85;21.02;;;;;;;5.27;100.00;92134.19;5068202;28;20346;-74
2024/03/05 01:12:06;;;;;;;32.67;20.83;;;;;;;5.27;100.00;92124.00;5070041;28;20143;-73
2024/03/05 01:14:33;;;;;;;31.05;21.48;;;;;;;5.23;100.00;92120.31;5068777;28;20110;-73
2024/03/05 01:17:00;;;;;;;31.95;20.55;;;;;;;5.24;100.00;92126.97;5069462;28;20055;-73
2024/03/05 01:19:29;;;;;;;29.42;18.92;;;;;;;5.11;100.00;92112.53;5070063;28;20442;-73
2024/03/05 01:21:58;;;;;;;32.10;20.70;;;;;;;5.20;100.00;92126.56;5063235;28;20056;-73
2024/03/05 01:24:25;;;;;;;32.20;21.45;;;;;;;5.15;100.00;92118.78;5062171;28;20048;-73
2024/03/05 01:26:53;;;;;;;29.05;19.08;;;;;;;5.10;100.00;92116.06;5067991;28;20131;-73
2024/03/05 01:29:21;;;;;;;31.73;19.60;;;;;;;5.01;100.00;92109.66;5066174;28;20044;-74
2024/03/05 01:31:54;;;;;;;28.98;18.45;;;;;;;4.97;100.00;92111.03;5068575;28;20135;-73
2024/03/05 01:34:22;;;;;;;31.77;21.00;;;;;;;4.94;100.00;92112.22;5065574;28;20059;-73
2024/03/05 01:36:49;;;;;;;31.27;20.75;;;;;;;4.40;100.00;92097.13;5065229;28;20056;-73
2024/03/05 01:39:18;;;;;;;36.08;22.70;;;;;;;4.40;100.00;92100.44;5067148;28;20055;-73
2024/03/05 01:41:45;;;;;;;35.42;22.35;;;;;;;4.31;100.00;92088.16;5065684;28;20067;-73
2024/03/05 01:44:13;;;;;;;39.78;25.08;;;;;;;4.24;100.00;92088.16;5064428;28;20056;-73
2024/03/05 01:46:40;;;;;;;40.88;26.10;;;;;;;4.27;100.00;92085.22;5064767;28;20045;-73
2024/03/05 01:49:08;;;;;;;53.97;34.28;;;;;;;4.34;100.00;92090.28;5067061;28;20449;-73
2024/03/05 01:51:36;;;;;;;46.40;30.10;;;;;;;4.46;100.00;92081.06;5064948;28;20063;-73
2024/03/05 01:54:03;;;;;;;42.15;28.40;;;;;;;4.54;100.00;92075.75;5065654;28;20044;-73
2024/03/05 01:56:31;;;;;;;46.38;30.00;;;;;;;4.60;100.00;92073.38;5068737;28;20045;-74
2024/03/05 01:58:59;;;;;;;50.97;30.88;;;;;;;4.61;100.00;92070.66;5068666;28;20045;-74
2024/03/05 02:01:27;;;;;;;47.47;29.30;;;;;;;4.67;100.00;92076.69;5065379;28;20391;-74
2024/03/05 02:03:54;;;;;;;42.40;28.35;;;;;;;4.77;100.00;92076.28;5068015;28;20167;-73
2024/03/05 02:06:23;;;;;;;36.72;24.70;;;;;;;4.73;100.00;92072.56;5067135;28;20529;-73
2024/03/05 02:08:51;;;;;;;37.42;23.33;;;;;;;4.68;100.00;92068.84;5062163;28;20044;-73
2024/03/05 02:11:19;;;;;;;34.25;23.02;;;;;;;4.53;100.00;92030.97;5064678;28;20094;-73
2024/03/05 02:13:48;;;;;;;34.42;21.52;;;;;;;4.79;100.00;92066.66;5066201;28;20080;-73
2024/03/05 02:16:15;;;;;;;30.80;19.42;;;;;;;4.80;100.00;92070.78;5065011;28;20095;-72
2024/03/05 02:18:42;;;;;;;27.40;18.33;;;;;;;4.68;100.00;92068.84;5067124;28;20468;-73
2024/03/05 02:21:20;;;;;;;32.60;19.63;;;;;;;4.67;100.00;92067.31;5067218;28;20135;-73
2024/03/05 02:23:47;;;;;;;30.33;19.58;;;;;;;4.64;100.00;92066.94;5063802;28;20049;-73
2024/03/05 02:26:14;;;;;;;29.38;18.90;;;;;;;4.70;100.00;92062.78;5064739;28;20090;-73
2024/03/05 02:28:41;;;;;;;27.70;18.40;;;;;;;4.64;100.00;92066.94;5067346;28;20057;-73
2024/03/05 02:31:08;;;;;;;29.90;19.52;;;;;;;4.51;100.00;92055.03;5063337;28;20055;-73
2024/03/05 02:33:36;;;;;;;30.67;20.50;;;;;;;4.68;100.00;92063.78;5063789;28;20162;-74
2024/03/05 02:36:04;;;;;;;32.05;21.83;;;;;;;4.70;100.00;92063.56;5065630;28;20048;-73
2024/03/05 02:38:33;;;;;;;28.65;19.88;;;;;;;4.36;100.00;92028.06;5067136;28;20045;-73
2024/03/05 02:41:00;;;;;;;33.55;20.42;;;;;;;4.54;100.00;92052.88;5065418;28;20163;-73
2024/03/05 02:43:26;;;;;;;33.05;21.13;;;;;;;4.63;100.00;92065.38;5066589;28;20481;-73
2024/03/05 02:45:53;;;;;;;36.13;21.30;;;;;;;4.72;100.00;92063.38;5067373;28;20037;-73
2024/03/05 02:48:20;;;;;;;31.23;20.15;;;;;;;4.71;100.00;92061.81;5067629;28;20048;-74
2024/03/05 02:50:48;;;;;;;30.58;20.67;;;;;;;4.66;100.00;92064.94;5061689;28;20055;-73
2024/03/05 02:53:17;;;;;;;26.45;18.02;;;;;;;4.74;100.00;92061.41;5063548;28;20580;-73
2024/03/05 02:55:45;;;;;;;31.52;19.83;;;;;;;4.55;100.00;92069.69;5066346;28;20502;-73
2024/03/05 02:58:12;;;;;;;31.92;19.35;;;;;;;4.49;100.00;92070.47;5063056;28;20063;-73
2024/03/05 03:00:40;;;;;;;30.13;20.00;;;;;;;4.46;100.00;92068.34;5005253;28;1710200;-73
2024/03/05 03:03:07;;;;;;;30.35;18.98;;;;;;;4.22;100.00;92029.88;5066313;28;20052;-73
2024/03/05 03:05:34;;;;;;;32.95;19.63;;;;;;;4.47;100.00;92071.66;5066336;28;20057;-73
2024/03/05 03:08:01;;;;;;;31.17;19.92;;;;;;;4.49;100.00;92067.19;5067347;28;20040;-73
2024/03/05 03:10:28;;;;;;;33.80;20.98;;;;;;;4.52;100.00;92069.31;5065812;28;20056;-73
2024/03/05 03:12:57;;;;;;;29.48;19.08;;;;;;;4.49;100.00;92062.09;5067247;28;20052;-73
2024/03/05 03:15:32;;;;;;;28.48;18.67;;;;;;;4.23;100.00;92045.91;5067374;28;20134;-73
2024/03/05 03:17:59;;;;;;;32.72;20.25;;;;;;;4.41;100.00;92070.72;5060715;28;20052;-72
2024/03/05 03:20:29;;;;;;;31.35;20.45;;;;;;;4.12;100.00;92027.00;5065715;28;20048;-73
2024/03/05 03:22:57;;;;;;;32.83;20.65;;;;;;;4.39;100.00;92057.41;5063848;28;20048;-73
2024/03/05 03:25:24;;;;;;;33.97;21.85;;;;;;;4.42;100.00;92054.47;5066433;28;20110;-72
2024/03/05 03:27:51;;;;;;;35.63;24.88;;;;;;;3.95;100.00;92040.13;5063159;28;20563;-73
2024/03/05 03:30:20;;;;;;;38.38;27.50;;;;;;;3.67;100.00;92053.81;5063964;28;20052;-73
2024/03/05 03:32:47;;;;;;;44.17;29.13;;;;;;;3.51;100.00;92039.75;5067393;28;20473;-73
2024/03/05 03:35:15;;;;;;;45.85;28.67;;;;;;;3.54;100.00;92036.81;5066903;28;20048;-73
2024/03/05 03:37:42;;;;;;;44.83;27.45;;;;;;;3.68;100.00;92050.31;5065601;28;20080;-73
2024/03/05 03:40:17;;;;;;;42.22;26.38;;;;;;;3.65;100.00;92052.44;5064838;28;20048;-73
2024/03/05 03:42:45;;;;;;;47.97;29.97;;;;;;;3.38;100.00;92009.28;5067257;28;20045;-73
2024/03/05 03:45:13;;;;;;;63.10;36.00;;;;;;;3.53;100.00;92037.81;5064352;28;20679;-73
2024/03/05 03:47:42;;;;;;;52.88;32.15;;;;;;;3.67;100.00;92048.75;5066088;28;20078;-73
2024/03/05 03:50:10;;;;;;;42.28;27.45;;;;;;;3.61;100.00;92019.81;5067009;28;20044;-73
2024/03/05 03:52:39;;;;;;;42.70;26.83;;;;;;;4.02;100.00;92045.16;5062533;28;20103;-73
2024/03/05 03:55:07;;;;;;;46.08;29.33;;;;;;;4.30;100.00;92053.53;5059369;28;20136;-72
2024/03/05 03:57:34;;;;;;;45.28;27.60;;;;;;;4.44;100.00;92052.50;5066479;28;20554;-73
2024/03/05 04:00:01;;;;;;;45.88;27.10;;;;;;;4.44;100.00;92036.47;5066018;28;20129;-72
2024/03/05 04:02:28;;;;;;;38.25;25.60;;;;;;;4.58;100.00;92045.59;5064156;28;20059;-72
2024/03/05 04:04:56;;;;;;;40.70;25.38;;;;;;;4.62;100.00;92051.06;5065399;28;20045;-72
2024/03/05 04:07:25;;;;;;;40.08;26.38;;;;;;;4.67;100.00;92048.69;5061820;28;20072;-72
2024/03/05 04:09:52;;;;;;;42.33;26.25;;;;;;;4.58;100.00;92055.03;5066428;28;20090;-73
2024/03/05 04:12:19;;;;;;;43.40;27.17;;;;;;;4.61;100.00;92057.16;5066721;28;20064;-73
2024/03/05 04:14:46;;;;;;;42.92;28.90;;;;;;;4.57;100.00;92033.13;5057575;28;20573;-74
2024/03/05 04:17:15;;;;;;;45.05;29.73;;;;;;;4.74;100.00;92053.78;5060715;28;20486;-73
2024/03/05 04:19:42;;;;;;;43.58;28.90;;;;;;;4.90;100.00;92048.22;5065558;28;20049;-73
2024/03/05 04:22:14;;;;;;;41.05;26.88;;;;;;;4.85;100.00;92058.22;5062615;28;20049;-73
2024/03/05 04:24:52;;;;;;;44.25;28.27;;;;;;;4.97;100.00;92048.19;5062456;28;20063;-73
2024/03/05 04:27:19;;;;;;;37.38;25.13;;;;;;;5.04;100.00;92038.75;5058298;28;20045;-73
2024/03/05 04:29:52;;;;;;;48.65;29.48;;;;;;;4.91;100.00;92046.47;5065507;28;20055;-73
2024/03/05 04:32:19;;;;;;;45.70;28.73;;;;;;;4.86;100.00;92020.84;5060091;28;20429;-73
2024/03/05 04:34:49;;;;;;;49.67;30.23;;;;;;;4.85;100.00;92052.38;5061264;28;20591;-73
2024/03/05 04:37:18;;;;;;;49.08;31.65;;;;;;;4.78;100.00;92049.84;5059371;28;20153;-73
2024/03/05 04:39:46;;;;;;;46.67;30.27;;;;;;;4.65;100.00;92031.13;5059613;28;20131;-73
2024/03/05 04:42:17;;;;;;;48.80;30.52;;;;;;;4.81;100.00;92052.75;5058184;28;20048;-73
2024/03/05 04:44:45;;;;;;;49.35;30.52;;;;;;;4.84;100.00;92054.13;5066304;28;20482;-73
2024/03/05 04:47:11;;;;;;;50.67;31.35;;;;;;;4.92;100.00;92048.78;5066853;28;20076;-73
2024/03/05 04:49:47;;;;;;;50.17;30.92;;;;;;;4.87;100.00;92051.19;5061434;28;20054;-73
2024/03/05 04:52:14;;;;;;;46.38;29.02;;;;;;;4.95;100.00;92050.16;5063296;28;20106;-73
2024/03/05 04:54:55;;;;;;;38.88;25.30;;;;;;;4.99;100.00;92043.66;5066968;28;20571;-73
2024/03/05 04:57:22;;;;;;;40.20;24.50;;;;;;;5.00;100.00;92045.22;5059525;28;20048;-73
2024/03/05 04:59:49;;;;;;;39.30;24.38;;;;;;;5.00;100.00;92047.78;5064920;28;20561;-73
2024/03/05 05:02:17;;;;;;;41.70;25.15;;;;;;;4.95;100.00;92042.50;5062605;28;20139;-73
2024/03/05 05:04:44;;;;;;;33.22;22.00;;;;;;;4.98;100.00;92041.31;5064460;28;20047;-73
2024/03/05 05:07:11;;;;;;;37.30;22.95;;;;;;;5.01;100.00;92035.84;5060170;28;20056;-73
2024/03/05 05:09:39;;;;;;;38.22;22.35;;;;;;;4.97;100.00;92030.38;5064728;28;20499;-73
2024/03/05 05:12:08;;;;;;;35.30;22.48;;;;;;;5.06;100.00;92049.50;5061759;28;20048;-73
2024/03/05 05:14:35;;;;;;;38.50;24.15;;;;;;;4.95;100.00;92028.03;5065111;28;20056;-73
2024/03/05 05:17:04;;;;;;;36.28;23.70;;;;;;;5.02;100.00;92040.72;5059644;28;20569;-73
2024/03/05 05:19:31;;;;;;;41.50;24.40;;;;;;;4.93;100.00;92034.31;5064594;28;20535;-73
2024/03/05 05:21:58;;;;;;;36.22;23.13;;;;;;;4.94;100.00;92048.59;5065112;28;20048;-73
2024/03/05 05:24:27;;;;;;;38.67;25.45;;;;;;;4.77;100.00;92026.16;5062061;28;20417;-73
2024/03/05 05:26:54;;;;;;;41.63;25.55;;;;;;;4.86;100.00;92047.06;5063208;28;20056;-73
2024/03/05 05:29:22;;;;;;;37.50;23.42;;;;;;;4.91;100.00;92049.78;5061168;28;21173;-73
2024/03/05 05:31:49;;;;;;;38.88;23.90;;;;;;;4.95;100.00;92039.97;5052452;28;20063;-73
2024/03/05 05:34:19;;;;;;;38.25;23.20;;;;;;;4.86;100.00;92029.25;5054246;28;20052;-72
2024/03/05 05:36:46;;;;;;;37.08;24.02;;;;;;;4.83;100.00;92039.84;5052230;28;20577;-73
2024/03/05 05:39:13;;;;;;;36.97;23.42;;;;;;;4.77;100.00;92035.56;5047281;28;20041;-73
2024/03/05 05:41:40;;;;;;;41.35;25.02;;;;;;;4.78;100.00;92037.88;5047489;28;20051;-73
2024/03/05 05:44:07;;;;;;;35.75;23.95;;;;;;;4.73;100.00;92045.38;5049807;28;20063;-73
2024/03/05 05:46:36;;;;;;;37.13;24.60;;;;;;;4.88;100.00;92044.31;5052785;28;20048;-73
2024/03/05 05:49:05;;;;;;;38.90;25.10;;;;;;;4.92;100.00;92053.88;5054011;28;20048;-73
2024/03/05 05:51:32;;;;;;;46.92;29.65;;;;;;;4.91;100.00;92041.38;5059131;28;20410;-73
2024/03/05 05:54:00;;;;;;;49.33;30.75;;;;;;;5.01;100.00;92043.47;5056451;28;20532;-73
2024/03/05 05:56:27;;;;;;;48.60;28.90;;;;;;;5.10;100.00;92054.19;5052575;28;20064;-73
2024/03/05 05:58:54;;;;;;;48.10;29.85;;;;;;;5.18;100.00;92054.72;5054530;28;20047;-73
2024/03/05 06:01:22;;;;;;;52.10;30.15;;;;;;;5.08;100.00;92049.31;5055053;28;20071;-73
2024/03/05 06:03:50;;;;;;;44.63;28.45;;;;;;;5.16;100.00;92038.09;5051259;28;20059;-73
2024/03/05 06:06:19;;;;;;;48.70;30.50;;;;;;;5.19;100.00;92035.16;5051216;28;20057;-74
2024/03/05 06:08:46;;;;;;;47.38;31.25;;;;;;;5.19;100.00;92032.59;5062807;28;20055;-73
2024/03/05 06:11:13;;;;;;;49.15;30.35;;;;;;;5.29;100.00;92037.25;5057788;28;20041;-73
2024/03/05 06:13:41;;;;;;;51.97;31.38;;;;;;;5.39;100.00;92045.22;5059353;28;20053;-73
2024/03/05 06:16:08;;;;;;;58.75;36.50;;;;;;;5.47;100.00;92039.09;5052989;28;20413;-73
2024/03/05 06:18:36;;;;;;;53.33;36.88;;;;;;;5.56;100.00;92030.19;5058899;28;20148;-73
2024/03/05 06:21:05;;;;;;;56.83;35.20;;;;;;;5.66;100.00;92031.50;5050757;28;20407;-73
2024/03/05 06:23:32;;;;;;;58.92;35.75;;;;;;;5.75;100.00;92053.94;5051336;28;20055;-73
2024/03/05 06:25:59;;;;;;;54.08;34.03;;;;;;;5.84;100.00;92056.25;5051500;28;20051;-73
2024/03/05 06:28:27;;;;;;;55.72;33.92;;;;;;;5.95;100.00;92059.88;5052280;28;20060;-73
2024/03/05 06:30:54;;;;;;;47.40;32.67;;;;;;;5.89;100.00;92061.50;5060526;28;20079;-73
2024/03/05 06:33:21;;;;;;;48.17;30.73;;;;;;;6.03;100.00;92056.31;5051643;28;21107;-73
2024/03/05 06:35:48;;;;;;;43.13;29.52;;;;;;;6.11;100.00;92064.47;5051250;28;20048;-73
2024/03/05 06:38:17;;;;;;;47.75;30.30;;;;;;;6.24;100.00;92057.66;5052272;28;20049;-73
2024/03/05 06:40:44;;;;;;;46.08;30.10;;;;;;;6.26;100.00;92038.63;5054192;28;20090;-73
2024/03/05 06:43:15;;;;;;;44.08;29.35;;;;;;;6.46;100.00;92045.28;5052037;28;20049;-73
2024/03/05 06:45:43;;;;;;;47.33;27.88;;;;;;;6.68;100.00;92055.81;5052375;28;20132;-73
2024/03/05 06:48:12;;;;;;;42.80;27.13;;;;;;;6.90;100.00;92044.41;5051072;28;20040;-72
2024/03/05 06:50:41;;;;;;;44.72;26.17;;;;;;;6.84;100.00;92050.38;5057818;28;20495;-72
2024/03/05 06:58:41;;;;;;;51.13;31.52;;;;;;;7.47;100.00;92053.47;5054611;28;20321;-73
2024/03/05 07:01:07;;;;;;;54.85;31.48;;;;;;;7.77;100.00;92062.84;5050653;28;20094;-73
2024/03/05 07:03:35;;;;;;;54.45;30.42;;;;;;;8.02;100.00;92065.19;5056483;28;20534;-74
2024/03/05 07:06:06;;;;;;;51.17;29.63;;;;;;;8.27;100.00;92068.53;5052843;28;20041;-73
2024/03/05 07:08:34;;;;;;;41.42;25.73;;;;;;;8.58;100.00;92070.97;5053855;28;20046;-74
2024/03/05 07:11:05;;;;;;;44.53;25.50;;;;;;;8.89;100.00;92076.72;5059249;28;20051;-73
2024/03/05 07:13:32;;;;;;;44.05;24.10;;;;;;;9.23;100.00;92082.72;5050039;28;20052;-73
2024/03/05 07:15:59;;;;;;;34.95;22.35;;;;;;;9.41;100.00;92082.75;5051986;28;20041;-73
2024/03/05 07:18:26;;;;;;;37.05;21.75;;;;;;;9.62;100.00;92069.28;5051163;28;20041;-73
2024/03/05 07:20:53;;;;;;;36.17;20.88;;;;;;;9.90;100.00;92072.00;5057605;28;20071;-73
2024/03/05 07:23:21;;;;;;;39.42;21.33;;;;;;;10.15;100.00;92078.53;5051125;28;20430;-73
2024/03/05 07:25:48;;;;;;;39.50;20.67;;;;;;;10.39;99.06;92088.63;5054290;28;20053;-73
2024/03/05 07:28:17;;;;;;;45.50;23.35;;;;;;;10.66;98.21;92086.16;5060785;28;20056;-73
2024/03/05 07:30:44;;;;;;;46.10;23.35;;;;;;;10.73;93.24;92095.53;5049852;28;20529;-73
2024/03/05 07:33:10;;;;;;;47.03;24.30;;;;;;;10.34;95.79;92084.22;5052547;28;20041;-73
2024/03/05 07:35:37;;;;;;;51.83;26.65;;;;;;;10.18;98.10;92083.19;5061253;28;20054;-73
2024/03/05 07:38:07;;;;;;;43.05;22.52;;;;;;;10.31;96.36;92083.91;5049750;28;20055;-74
2024/03/05 07:40:34;;;;;;;40.05;21.25;;;;;;;10.50;95.51;92094.69;5053756;28;20063;-74
2024/03/05 07:43:04;;;;;;;32.83;17.65;;;;;;;10.42;90.63;92076.09;5056147;28;20044;-74
2024/03/05 07:45:33;;;;;;;41.88;20.98;;;;;;;10.33;91.63;92089.56;5054015;28;20126;-74
2024/03/05 07:48:00;;;;;;;31.83;18.38;;;;;;;10.48;92.31;92094.16;5051190;28;20665;-74
2024/03/05 07:50:28;;;;;;;33.95;17.73;;;;;;;10.70;88.92;92099.34;5049140;28;20053;-74
2024/03/05 07:52:57;;;;;;;34.05;16.40;;;;;;;10.86;87.93;92078.97;5051661;28;20051;-74
2024/03/05 07:55:25;;;;;;;34.20;16.65;;;;;;;11.00;84.95;92087.88;5052304;28;20044;-74
2024/03/05 07:57:53;;;;;;;33.15;17.05;;;;;;;11.20;87.70;92081.41;5053352;28;20068;-73
2024/03/05 08:00:22;;;;;;;35.35;18.02;;;;;;;11.57;83.79;92092.84;5048774;28;20045;-74
2024/03/05 08:02:53;;;;;;;34.47;16.95;;;;;;;11.87;85.49;92082.03;5057943;28;20040;-73
2024/03/05 08:05:22;;;;;;;21.42;12.02;;;;;;;12.22;81.64;92090.28;5049268;28;20080;-73
2024/03/05 08:07:49;;;;;;;19.40;9.65;;;;;;;11.74;83.44;92083.22;5052338;28;20056;-73
2024/03/05 08:10:17;;;;;;;19.67;9.93;;;;;;;12.02;81.60;92096.03;5050414;28;20048;-73
2024/03/05 08:12:46;;;;;;;14.57;7.85;;;;;;;11.45;85.35;92096.31;5053788;28;20049;-73
2024/03/05 08:15:15;;;;;;;15.93;8.70;;;;;;;10.76;91.18;92100.16;5052031;28;20048;-73
2024/03/05 08:17:45;;;;;;;14.27;9.23;;;;;;;10.56;92.68;92068.09;5048353;28;20419;-73
2024/03/05 08:20:14;;;;;;;15.68;9.30;;;;;;;10.57;93.20;92087.63;5049097;28;20037;-73
2024/03/05 08:22:41;;;;;;;15.90;9.93;;;;;;;10.25;97.38;92096.66;5047904;28;20048;-73
2024/03/05 08:25:10;;;;;;;17.30;10.00;;;;;;;10.10;97.78;92097.19;5048369;28;20052;-74
2024/03/05 08:27:38;;;;;;;21.13;11.43;;;;;;;9.99;100.00;92108.31;5048040;28;20053;-73
2024/03/05 08:30:09;;;;;;;18.35;9.38;;;;;;;10.14;99.60;92107.78;5049706;28;20041;-73
2024/03/05 08:32:36;;;;;;;17.77;10.38;;;;;;;10.05;100.00;92102.28;5047701;28;20041;-73
2024/03/05 08:35:03;;;;;;;18.38;9.77;;;;;;;10.05;100.00;92111.75;5047892;28;20056;-73
2024/03/05 08:37:31;;;;;;;18.05;10.65;;;;;;;10.22;99.52;92104.81;5048986;28;20562;-73
2024/03/05 08:39:58;;;;;;;17.38;10.23;;;;;;;10.15;100.00;92119.59;5049929;28;20055;-73
2024/03/05 08:42:25;;;;;;;16.52;10.07;;;;;;;10.41;97.26;92096.84;5048478;28;20041;-73
2024/03/05 08:44:53;;;;;;;14.70;9.10;;;;;;;10.43;97.52;92123.13;5053031;28;20055;-73
2024/03/05 08:47:20;;;;;;;18.25;9.98;;;;;;;10.68;96.98;92120.13;5048681;28;20140;-73
2024/03/05 08:49:50;;;;;;;17.13;10.75;;;;;;;10.40;96.66;92136.38;5049974;28;20163;-74
2024/03/05 08:52:17;;;;;;;18.55;11.40;;;;;;;10.19;97.36;92138.66;5051096;28;20049;-74
2024/03/05 08:54:46;;;;;;;17.67;9.88;;;;;;;10.52;96.27;92124.25;5048227;28;20059;-73
2024/03/05 08:57:13;;;;;;;16.67;9.40;;;;;;;10.18;96.55;92120.94;5048176;28;20086;-73
2024/03/05 08:59:40;;;;;;;15.07;10.30;;;;;;;10.41;96.17;92132.78;5047746;28;20099;-73
2024/03/05 09:02:07;;;;;;;14.80;9.82;;;;;;;10.32;96.96;92139.34;5048094;28;20059;-73
2024/03/05 09:04:34;;;;;;;24.55;14.73;;;;;;;10.34;96.63;92147.59;5049588;28;20055;-73
2024/03/05 09:07:01;;;;;;;41.17;34.50;;;;;;;9.80;95.87;92043.63;5050240;28;20048;-73
2024/03/05 09:09:30;;;;;;;19.70;15.00;;;;;;;10.45;96.08;92140.84;5048343;28;20060;-73
2024/03/05 09:11:58;;;;;;;15.80;9.88;;;;;;;10.25;95.70;92145.44;5049048;28;20094;-73
2024/03/05 09:14:25;;;;;;;22.80;13.65;;;;;;;10.17;96.52;92148.38;5052028;28;20099;-73
2024/03/05 09:16:53;;;;;;;19.92;11.55;;;;;;;10.29;95.92;92148.28;5052648;28;20532;-72
2024/03/05 09:19:21;;;;;;;18.15;11.98;;;;;;;10.42;94.11;92142.06;5053229;28;20045;-73
2024/03/05 09:21:50;;;;;;;16.60;10.43;;;;;;;10.30;94.57;92142.16;5051878;28;20414;-73
2024/03/05 09:24:17;;;;;;;19.95;11.25;;;;;;;10.43;93.28;92139.28;5059042;28;20056;-72
2024/03/05 09:26:44;;;;;;;18.05;9.50;;;;;;;10.54;91.87;92142.78;5053729;28;20049;-73
2024/03/05 09:29:13;;;;;;;23.95;13.75;;;;;;;10.61;93.58;92134.94;5051450;28;20084;-73
2024/03/05 09:31:41;;;;;;;18.02;10.85;;;;;;;10.66;93.27;92142.66;5053506;28;20053;-73
2024/03/05 09:34:07;;;;;;;19.50;9.68;;;;;;;10.69;92.85;92149.91;5051654;28;20052;-73
2024/03/05 09:36:34;;;;;;;26.27;12.48;;;;;;;10.95;92.04;92146.91;5053946;28;20048;-73
2024/03/05 09:39:03;;;;;;;29.77;13.60;;;;;;;10.95;91.54;92144.34;5053416;28;20044;-73
2024/03/05 09:41:36;;;;;;;20.25;11.02;;;;;;;11.18;90.84;92145.13;5051651;28;20114;-73
2024/03/05 09:44:07;;;;;;;19.13;9.52;;;;;;;11.11;88.58;92140.16;5052501;28;20052;-73
2024/03/05 09:46:38;;;;;;;17.40;9.48;;;;;;;11.15;86.86;92146.38;5052623;28;20171;-73
2024/03/05 09:49:06;;;;;;;18.60;9.52;;;;;;;11.18;86.39;92145.91;5054609;28;20049;-73
2024/03/05 09:51:35;;;;;;;18.00;9.57;;;;;;;11.15;87.25;92150.75;5051366;28;20054;-73
2024/03/05 09:54:06;;;;;;;15.43;9.45;;;;;;;11.23;86.75;92147.75;5052736;28;20057;-73
2024/03/05 09:56:34;;;;;;;35.25;16.27;;;;;;;11.19;85.51;92147.47;5053419;28;20127;-73
2024/03/05 09:59:05;;;;;;;30.70;15.07;;;;;;;11.56;83.88;92153.78;5056959;28;20064;-73
2024/03/05 10:01:34;;;;;;;15.85;8.32;;;;;;;11.75;82.38;92154.22;5053575;28;20421;-73
2024/03/05 10:04:05;;;;;;;28.98;16.08;;;;;;;11.83;79.91;92163.28;5051178;28;20518;-73
2024/03/05 10:06:32;;;;;;;24.02;13.98;;;;;;;12.03;80.20;92131.81;5054398;28;20045;-73
2024/03/05 10:08:59;;;;;;;26.67;14.55;;;;;;;12.18;78.88;92145.88;5056137;28;20064;-73
2024/03/05 10:11:26;;;;;;;13.02;7.47;;;;;;;12.08;76.71;92143.97;5052002;28;20522;-73
2024/03/05 10:13:53;;;;;;;13.00;7.13;;;;;;;12.01;77.79;92144.16;5057679;28;20048;-73
2024/03/05 10:16:22;;;;;;;16.77;9.15;;;;;;;12.46;78.87;92145.81;5051328;28;20052;-73
2024/03/05 10:18:50;;;;;;;15.55;8.77;;;;;;;12.73;77.11;92144.94;5052480;28;20481;-73
2024/03/05 10:21:20;;;;;;;16.73;9.07;;;;;;;12.63;77.86;92146.44;5051456;28;20504;-73
2024/03/05 10:23:49;;;;;;;15.18;8.93;;;;;;;12.73;76.46;92152.69;5050409;28;20053;-73
2024/03/05 10:26:24;;;;;;;13.95;9.95;;;;;;;12.35;76.69;92127.69;5053953;28;20044;-73
2024/03/05 10:28:52;;;;;;;13.77;8.77;;;;;;;12.73;76.05;92156.00;5052264;28;20642;-73
2024/03/05 10:31:26;;;;;;;17.48;9.05;;;;;;;12.47;76.06;92152.50;5052175;28;20055;-73
2024/03/05 10:33:56;;;;;;;15.40;9.40;;;;;;;12.44;74.55;92153.78;5052079;28;20498;-74
2024/03/05 10:36:29;;;;;;;15.45;9.13;;;;;;;12.95;75.89;92152.53;5051746;28;20045;-73
2024/03/05 10:38:56;;;;;;;13.23;8.02;;;;;;;12.96;73.66;92144.56;5050063;28;20056;-73
2024/03/05 10:41:24;;;;;;;14.88;9.07;;;;;;;13.48;73.06;92164.66;5049893;28;20419;-73
2024/03/05 10:43:55;;;;;;;17.77;9.35;;;;;;;13.40;73.05;92165.09;5051114;28;20045;-73
2024/03/05 10:46:23;;;;;;;22.67;10.90;;;;;;;13.26;74.75;92150.09;5052118;28;20052;-73
2024/03/05 10:48:52;;;;;;;18.42;10.48;;;;;;;13.16;75.97;92160.38;5049303;28;20410;-73
2024/03/05 10:51:26;;;;;;;17.95;10.30;;;;;;;12.72;77.66;92164.00;5051788;28;20040;-73
2024/03/05 10:53:59;;;;;;;16.63;9.52;;;;;;;13.32;73.94;92167.13;5052226;28;20049;-73
2024/03/05 10:56:26;;;;;;;20.65;11.27;;;;;;;13.06;72.15;92166.25;5051308;28;20384;-73
2024/03/05 10:59:28;;;;;;;17.40;9.90;;;;;;;13.27;72.00;92166.34;5052278;28;20048;-73
2024/03/05 11:01:58;;;;;;;17.38;9.27;;;;;;;13.72;72.03;92159.03;5050836;28;20562;-73
2024/03/05 11:04:26;;;;;;;15.75;10.30;;;;;;;13.84;72.91;92156.22;5053833;28;20045;-73
2024/03/05 11:06:57;;;;;;;26.20;16.33;;;;;;;13.08;74.38;92164.19;5050072;28;20131;-73
2024/03/05 11:09:26;;;;;;;22.95;12.68;;;;;;;13.33;74.89;92160.19;5051080;28;20409;-73
2024/03/05 11:11:58;;;;;;;17.33;10.57;;;;;;;13.68;74.03;92157.97;5049906;28;20564;-73
2024/03/05 11:14:26;;;;;;;18.77;10.52;;;;;;;13.29;74.98;92159.13;5049893;28;20044;-73
2024/03/05 11:17:00;;;;;;;20.55;10.18;;;;;;;13.22;74.05;92160.16;5057256;28;20093;-73
2024/03/05 11:19:28;;;;;;;16.98;9.80;;;;;;;13.51;71.83;92158.97;5049790;28;20518;-73
2024/03/05 11:21:56;;;;;;;26.13;13.43;;;;;;;13.06;72.79;92145.63;5049394;28;20423;-73
2024/03/05 11:24:25;;;;;;;20.00;11.82;;;;;;;12.52;76.65;92158.47;5050236;28;20503;-73
2024/03/05 11:27:10;;;;;;;17.17;11.63;;;;;;;12.50;76.42;92164.91;5058771;28;20561;-73
2024/03/05 11:29:40;;;;;;;19.38;12.35;;;;;;;12.63;77.00;92164.47;5051028;28;20060;-73